sensor_id;sensor_type;location;lat;lon;timestamp;P1;durP1;ratioP1;P2;durP2;ratioP2
1523;SDS011;755;53.658;10.118;2022-07-29T00:10:00;1999.90;;;999.90;;
1523;SDS011;755;53.658;10.118;2022-07-29T00:20:03;1999.90;;;999.90;;
1523;SDS011;755;53.658;10.118;2022-07-29T00:30:08;1999.90;;;999.90;;
1523;SDS011;755;53.658;10.118;2022-07-29T00:40:10;1999.90;;;999.90;;
1523;SDS011;755;53.658;10.118;2022-07-29T00:50:14;1999.90;;;999.90;;
1523;SDS011;755;53.658;10.118;2022-07-29T01:00:17;1999.90;;;999.90;;
1523;SDS011;755;53.658;10.118;2022-07-29T01:10:21;1999.90;;;999.90;;
1523;SDS011;755;53.658;10.118;2022-07-29T01:20:34;1999.90;;;999.90;;
1523;SDS011;755;53.658;10.118;2022-07-29T01:30:53;1999.90;;;999.90;;
1523;SDS011;755;53.658;10.118;2022-07-29T01:40:58;1999.90;;;999.90;;
1523;SDS011;755;53.658;10.118;2022-07-29T02:11:39;1999.90;;;999.90;;
1523;SDS011;755;53.658;10.118;2022-07-29T02:21:47;1999.90;;;999.90;;
1523;SDS011;755;53.658;10.118;2022-07-29T02:31:54;1999.90;;;999.90;;
1523;SDS011;755;53.658;10.118;2022-07-29T02:42:18;1999.90;;;999.90;;
1523;SDS011;755;53.658;10.118;2022-07-29T02:52:26;1999.90;;;999.90;;
1523;SDS011;755;53.658;10.118;2022-07-29T03:02:36;1999.90;;;999.90;;
1523;SDS011;755;53.658;10.118;2022-07-29T03:12:43;1999.90;;;999.90;;
1523;SDS011;755;53.658;10.118;2022-07-29T03:22:49;1999.90;;;999.90;;
1523;SDS011;755;53.658;10.118;2022-07-29T03:32:56;1999.90;;;999.90;;
1523;SDS011;755;53.658;10.118;2022-07-29T03:53:29;1999.90;;;999.90;;
1523;SDS011;755;53.658;10.118;2022-07-29T04:03:55;1999.90;;;999.90;;
1523;SDS011;755;53.658;10.118;2022-07-29T04:24:45;1999.90;;;999.90;;
1523;SDS011;755;53.658;10.118;2022-07-29T04:34:49;1999.90;;;999.90;;
1523;SDS011;755;53.658;10.118;2022-07-29T04:45:27;1999.90;;;999.90;;
1523;SDS011;755;53.658;10.118;2022-07-29T04:55:32;1999.90;;;999.90;;
1523;SDS011;755;53.658;10.118;2022-07-29T05:05:50;1999.90;;;999.90;;
1523;SDS011;755;53.658;10.118;2022-07-29T05:15:57;1999.90;;;999.90;;
1523;SDS011;755;53.658;10.118;2022-07-29T05:26:00;1999.90;;;999.90;;
1523;SDS011;755;53.658;10.118;2022-07-29T05:36:07;1999.90;;;999.90;;
1523;SDS011;755;53.658;10.118;2022-07-29T05:46:24;1999.90;;;999.90;;
1523;SDS011;755;53.658;10.118;2022-07-29T05:56:54;1999.90;;;999.90;;
1523;SDS011;755;53.658;10.118;2022-07-29T06:07:00;1999.90;;;999.90;;
1523;SDS011;755;53.658;10.118;2022-07-29T06:17:05;1999.90;;;999.90;;
1523;SDS011;755;53.658;10.118;2022-07-29T06:27:12;1026.93;;;525.22;;
1523;SDS011;755;53.658;10.118;2022-07-29T06:37:21;97.43;;;91.63;;
1523;SDS011;755;53.658;10.118;2022-07-29T06:47:34;645.28;;;386.40;;
1523;SDS011;755;53.658;10.118;2022-07-29T06:57:44;1999.90;;;999.90;;
1523;SDS011;755;53.658;10.118;2022-07-29T07:07:47;1999.90;;;999.90;;
1523;SDS011;755;53.658;10.118;2022-07-29T07:17:50;61.13;;;57.17;;
1523;SDS011;755;53.658;10.118;2022-07-29T07:27:52;77.75;;;73.10;;
1523;SDS011;755;53.658;10.118;2022-07-29T07:37:56;66.03;;;61.85;;
1523;SDS011;755;53.658;10.118;2022-07-29T07:47:58;60.47;;;56.63;;
1523;SDS011;755;53.658;10.118;2022-07-29T07:58:01;54.08;;;50.88;;
1523;SDS011;755;53.658;10.118;2022-07-29T08:08:04;49.97;;;46.70;;
1523;SDS011;755;53.658;10.118;2022-07-29T08:18:07;67.30;;;62.85;;
1523;SDS011;755;53.658;10.118;2022-07-29T08:28:09;65.75;;;61.47;;
1523;SDS011;755;53.658;10.118;2022-07-29T08:38:13;1999.90;;;999.90;;
1523;SDS011;755;53.658;10.118;2022-07-29T08:48:15;1999.90;;;999.90;;
1523;SDS011;755;53.658;10.118;2022-07-29T08:58:20;1999.90;;;999.90;;
1523;SDS011;755;53.658;10.118;2022-07-29T09:08:22;30.27;;;28.27;;
1523;SDS011;755;53.658;10.118;2022-07-29T09:18:34;30.42;;;28.33;;
1523;SDS011;755;53.658;10.118;2022-07-29T09:28:41;31.08;;;29.02;;
1523;SDS011;755;53.658;10.118;2022-07-29T09:38:44;38.70;;;36.33;;
1523;SDS011;755;53.658;10.118;2022-07-29T09:49:05;51.10;;;48.00;;
1523;SDS011;755;53.658;10.118;2022-07-29T09:59:10;39.58;;;36.83;;
1523;SDS011;755;53.658;10.118;2022-07-29T10:09:12;56.05;;;52.53;;
1523;SDS011;755;53.658;10.118;2022-07-29T10:19:15;47.42;;;44.30;;
1523;SDS011;755;53.658;10.118;2022-07-29T10:29:18;60.47;;;56.88;;
1523;SDS011;755;53.658;10.118;2022-07-29T10:39:26;50.35;;;47.42;;
1523;SDS011;755;53.658;10.118;2022-07-29T10:49:38;35.80;;;33.22;;
1523;SDS011;755;53.658;10.118;2022-07-29T11:10:32;68.68;;;63.60;;
1523;SDS011;755;53.658;10.118;2022-07-29T11:20:37;70.18;;;65.97;;
1523;SDS011;755;53.658;10.118;2022-07-29T11:30:48;70.40;;;66.27;;
1523;SDS011;755;53.658;10.118;2022-07-29T11:51:22;35.33;;;33.08;;
1523;SDS011;755;53.658;10.118;2022-07-29T12:01:26;29.23;;;27.55;;
1523;SDS011;755;53.658;10.118;2022-07-29T12:11:28;29.65;;;27.83;;
1523;SDS011;755;53.658;10.118;2022-07-29T12:21:43;30.83;;;28.80;;
1523;SDS011;755;53.658;10.118;2022-07-29T12:31:46;30.67;;;28.70;;
1523;SDS011;755;53.658;10.118;2022-07-29T12:41:55;50.45;;;46.80;;
1523;SDS011;755;53.658;10.118;2022-07-29T12:51:57;49.03;;;45.83;;
1523;SDS011;755;53.658;10.118;2022-07-29T13:02:00;66.05;;;61.88;;
1523;SDS011;755;53.658;10.118;2022-07-29T13:12:05;62.55;;;58.65;;
1523;SDS011;755;53.658;10.118;2022-07-29T13:22:12;59.63;;;54.53;;
1523;SDS011;755;53.658;10.118;2022-07-29T13:32:15;64.88;;;60.92;;
1523;SDS011;755;53.658;10.118;2022-07-29T13:42:18;60.35;;;56.40;;
1523;SDS011;755;53.658;10.118;2022-07-29T13:52:20;59.05;;;55.47;;
1523;SDS011;755;53.658;10.118;2022-07-29T14:02:24;70.20;;;65.95;;
1523;SDS011;755;53.658;10.118;2022-07-29T14:12:27;71.95;;;66.88;;
1523;SDS011;755;53.658;10.118;2022-07-29T14:22:30;60.63;;;57.00;;
1523;SDS011;755;53.658;10.118;2022-07-29T14:32:33;65.70;;;61.58;;
1523;SDS011;755;53.658;10.118;2022-07-29T14:42:38;72.53;;;68.15;;
1523;SDS011;755;53.658;10.118;2022-07-29T14:52:40;61.70;;;57.40;;
1523;SDS011;755;53.658;10.118;2022-07-29T15:02:43;42.17;;;39.38;;
1523;SDS011;755;53.658;10.118;2022-07-29T15:12:45;44.78;;;41.92;;
1523;SDS011;755;53.658;10.118;2022-07-29T15:22:49;37.38;;;34.33;;
1523;SDS011;755;53.658;10.118;2022-07-29T15:32:51;34.20;;;31.42;;
1523;SDS011;755;53.658;10.118;2022-07-29T15:42:54;36.80;;;34.20;;
1523;SDS011;755;53.658;10.118;2022-07-29T15:52:56;40.38;;;37.60;;
1523;SDS011;755;53.658;10.118;2022-07-29T16:02:59;44.15;;;41.22;;
1523;SDS011;755;53.658;10.118;2022-07-29T16:13:01;45.28;;;42.03;;
1523;SDS011;755;53.658;10.118;2022-07-29T16:23:05;33.58;;;31.20;;
1523;SDS011;755;53.658;10.118;2022-07-29T16:33:08;36.78;;;34.38;;
1523;SDS011;755;53.658;10.118;2022-07-29T16:43:11;32.00;;;29.83;;
1523;SDS011;755;53.658;10.118;2022-07-29T16:53:14;32.55;;;29.67;;
1523;SDS011;755;53.658;10.118;2022-07-29T17:03:17;1016.67;;;515.65;;
1523;SDS011;755;53.658;10.118;2022-07-29T17:13:19;1999.90;;;999.90;;
1523;SDS011;755;53.658;10.118;2022-07-29T17:23:23;1999.90;;;999.90;;
1523;SDS011;755;53.658;10.118;2022-07-29T17:33:25;1999.90;;;999.90;;
1523;SDS011;755;53.658;10.118;2022-07-29T17:43:28;1999.90;;;999.90;;
1523;SDS011;755;53.658;10.118;2022-07-29T17:53:30;1999.90;;;999.90;;
1523;SDS011;755;53.658;10.118;2022-07-29T18:03:33;1999.90;;;999.90;;
1523;SDS011;755;53.658;10.118;2022-07-29T18:13:35;1999.90;;;999.90;;
1523;SDS011;755;53.658;10.118;2022-07-29T18:23:39;1999.90;;;999.90;;
1523;SDS011;755;53.658;10.118;2022-07-29T18:33:41;116.38;;;108.85;;
1523;SDS011;755;53.658;10.118;2022-07-29T18:43:45;149.20;;;140.15;;
1523;SDS011;755;53.658;10.118;2022-07-29T18:53:47;135.90;;;127.22;;
1523;SDS011;755;53.658;10.118;2022-07-29T19:03:50;141.40;;;132.77;;
1523;SDS011;755;53.658;10.118;2022-07-29T19:13:52;146.85;;;137.85;;
1523;SDS011;755;53.658;10.118;2022-07-29T19:23:56;76.72;;;71.55;;
1523;SDS011;755;53.658;10.118;2022-07-29T19:33:58;48.75;;;45.75;;
1523;SDS011;755;53.658;10.118;2022-07-29T19:44:01;53.25;;;50.00;;
1523;SDS011;755;53.658;10.118;2022-07-29T19:54:04;76.03;;;71.45;;
1523;SDS011;755;53.658;10.118;2022-07-29T20:04:07;64.82;;;60.70;;
1523;SDS011;755;53.658;10.118;2022-07-29T20:14:09;52.00;;;48.75;;
1523;SDS011;755;53.658;10.118;2022-07-29T20:24:13;51.17;;;47.60;;
1523;SDS011;755;53.658;10.118;2022-07-29T20:34:14;89.22;;;83.55;;
1523;SDS011;755;53.658;10.118;2022-07-29T20:44:18;101.45;;;94.25;;
1523;SDS011;755;53.658;10.118;2022-07-29T20:54:22;150.00;;;140.77;;
1523;SDS011;755;53.658;10.118;2022-07-29T21:04:26;196.45;;;184.15;;
1523;SDS011;755;53.658;10.118;2022-07-29T21:14:28;230.57;;;216.18;;
1523;SDS011;755;53.658;10.118;2022-07-29T21:24:48;184.75;;;172.98;;
1523;SDS011;755;53.658;10.118;2022-07-29T21:34:50;119.45;;;111.65;;
1523;SDS011;755;53.658;10.118;2022-07-29T21:44:53;104.90;;;98.38;;
1523;SDS011;755;53.658;10.118;2022-07-29T21:54:55;119.10;;;111.65;;
1523;SDS011;755;53.658;10.118;2022-07-29T22:04:59;141.70;;;132.18;;
1523;SDS011;755;53.658;10.118;2022-07-29T22:15:01;139.25;;;130.45;;
1523;SDS011;755;53.658;10.118;2022-07-29T22:25:09;128.65;;;120.65;;
1523;SDS011;755;53.658;10.118;2022-07-29T22:35:12;108.25;;;101.35;;
1523;SDS011;755;53.658;10.118;2022-07-29T22:45:16;1999.90;;;999.90;;
1523;SDS011;755;53.658;10.118;2022-07-29T22:55:19;1999.90;;;999.90;;
1523;SDS011;755;53.658;10.118;2022-07-29T23:05:23;1999.90;;;999.90;;
1523;SDS011;755;53.658;10.118;2022-07-29T23:15:26;1999.90;;;999.90;;
1523;SDS011;755;53.658;10.118;2022-07-29T23:25:30;1999.90;;;999.90;;
1523;SDS011;755;53.658;10.118;2022-07-29T23:35:33;1999.90;;;999.90;;
1523;SDS011;755;53.658;10.118;2022-07-29T23:45:36;1999.90;;;999.90;;
1523;SDS011;755;53.658;10.118;2022-07-29T23:55:38;1999.90;;;999.90;;
